Visit the IPS Meteostar Home Page IPSM Red Wing Municipal Airport FORECAST

Miesville, Minnesota

28

32

28

32

40

40

42

48

20
20
11
25
25
25
32

16 miles away at Red Wing Municipal Airport 10:15 GMT

Weather:

Cloudy

Wind:

CALM

Temperature:

28 ° F

Pressure:

30.40

Dew Point:

21 ° F

Relative Humidity:

71

Feels Like:

28 ° F

Visibility:

10 miles


Aviation Observations:

KRGK 251015Z AUTO 00000KT 10SM SCT038 BKN047 OVC080 M02/M06 A3035 RMK AO2 =

National Weather Service Forecast:
Dakota

dakota- including the city of hastings
502 AM CDT SUN OCT 25 2020

TODAY

Snow. Snow accumulation less than 1 inch. Highs in the lower 30s. North winds 5 to 10 mph. Chance of snow 90 percent.

TONIGHT

Mostly cloudy. A 20 percent chance of snow in the evening. Lows around 20. Northwest winds 5 to 10 mph.

MONDAY

Partly cloudy. Highs in the upper 20s. Northwest winds 5 to 10 mph.

MONDAY NIGHT

Partly cloudy in the evening then clearing. Lows around 11. West winds around 5 mph.

TUESDAY

Mostly sunny. Highs in the lower 30s. Southwest winds 10 to 15 mph.

TUESDAY NIGHT THROUGH THURSDAY NIGHT

Mostly clear. Lows in the mid 20s. Highs around 40.

FRIDAY

Sunny. Highs in the lower 40s.

FRIDAY NIGHT AND SATURDAY

Mostly clear. Lows in the lower 30s. highs in the upper 40s.


Visit the IPS Meteostar Home Page